createdAt,value
2022-09-20T00:01:58.378Z,13.80
2022-09-20T00:07:00.116Z,13.70
2022-09-20T00:12:02.123Z,10.98
2022-09-20T00:17:03.934Z,8.05
2022-09-20T00:22:05.773Z,11.23
2022-09-20T00:27:07.506Z,12.15
2022-09-20T00:32:09.330Z,12.80
2022-09-20T00:37:11.090Z,10.88
2022-09-20T00:42:15.959Z,22.98
2022-09-20T00:47:43.222Z,15.00
2022-09-20T00:52:49.354Z,12.48
2022-09-20T00:57:51.614Z,9.93
2022-09-20T01:02:58.943Z,10.15
2022-09-20T01:08:01.130Z,8.63
2022-09-20T01:13:03.762Z,9.10
2022-09-20T01:18:07.587Z,9.40
2022-09-20T01:23:37.198Z,14.23
2022-09-20T01:28:42.234Z,18.65
2022-09-20T01:34:17.810Z,12.63
2022-09-20T01:39:39.540Z,15.63
2022-09-20T01:44:56.319Z,14.63
2022-09-20T01:50:22.987Z,15.60
2022-09-20T01:56:10.066Z,16.83
2022-09-20T02:01:31.079Z,9.95
2022-09-20T02:07:00.447Z,12.73
2022-09-20T02:12:33.696Z,12.20
2022-09-20T02:17:54.455Z,13.82
2022-09-20T02:23:07.213Z,11.70
2022-09-20T02:28:17.146Z,13.35
2022-09-20T02:33:27.792Z,13.45
2022-09-20T02:38:39.741Z,11.15
2022-09-20T02:43:56.436Z,18.35
2022-09-20T02:49:03.984Z,19.00
2022-09-20T02:54:17.098Z,21.10
2022-09-20T02:59:27.777Z,33.63
2022-09-20T03:05:04.806Z,41.15
2022-09-20T03:10:25.277Z,88.90
2022-09-20T03:16:08.806Z,88.80
2022-09-20T03:21:44.815Z,106.40
2022-09-20T03:27:05.118Z,78.63
2022-09-20T03:32:30.087Z,48.70
2022-09-20T03:37:51.764Z,62.42
2022-09-20T03:42:56.712Z,37.10
2022-09-20T03:48:20.284Z,57.03
2022-09-20T03:53:50.637Z,30.15
2022-09-20T03:59:13.404Z,64.95
2022-09-20T04:04:53.636Z,40.80
2022-09-20T04:10:16.327Z,29.38
2022-09-20T04:15:24.307Z,21.08
2022-09-20T04:20:50.191Z,20.57
2022-09-20T04:25:51.963Z,24.02
2022-09-20T04:30:59.748Z,16.40
2022-09-20T04:36:29.179Z,17.55
2022-09-20T04:41:34.407Z,18.80
2022-09-20T04:46:57.094Z,15.30
2022-09-20T04:52:23.215Z,15.30
2022-09-20T04:57:44.050Z,16.35
2022-09-20T05:03:03.062Z,20.92
2022-09-20T05:08:42.440Z,18.90
2022-09-20T05:13:55.312Z,16.75
2022-09-20T05:19:31.652Z,13.25
2022-09-20T05:24:59.315Z,17.27
2022-09-20T05:30:08.895Z,14.05
2022-09-20T05:35:43.306Z,11.57
2022-09-20T05:41:08.265Z,11.23
2022-09-20T05:46:19.030Z,14.55
2022-09-20T05:51:42.296Z,11.05
2022-09-20T05:57:02.062Z,11.20
2022-09-20T06:02:27.305Z,11.05
2022-09-20T06:07:33.814Z,10.32
2022-09-20T06:12:53.963Z,10.95
2022-09-20T06:18:13.852Z,9.30
2022-09-20T06:23:16.003Z,14.00
2022-09-20T06:28:24.059Z,11.45
2022-09-20T06:33:28.437Z,13.40
2022-09-20T06:39:13.612Z,7.88
2022-09-20T06:44:15.423Z,9.38
2022-09-20T06:49:17.362Z,12.60
2022-09-20T06:54:20.982Z,9.65
2022-09-20T06:59:22.744Z,12.60
2022-09-20T07:04:26.654Z,11.13
2022-09-20T07:09:28.548Z,10.43
2022-09-20T07:14:30.264Z,16.73
2022-09-20T07:19:32.035Z,11.65
2022-09-20T07:24:33.772Z,10.65
2022-09-20T07:29:35.651Z,15.77
2022-09-20T07:34:37.411Z,5.95
2022-09-20T07:39:39.251Z,7.05
2022-09-20T07:44:42.384Z,7.15
2022-09-20T07:49:44.231Z,7.78
2022-09-20T07:54:46.011Z,5.63
2022-09-20T07:59:47.863Z,5.50
2022-09-20T08:04:49.893Z,53.20
2022-09-20T08:09:51.644Z,4.05
2022-09-20T08:14:53.786Z,3.60
2022-09-20T08:19:55.640Z,5.47
2022-09-20T08:24:57.379Z,3.22
2022-09-20T08:30:01.159Z,5.05
2022-09-20T08:35:03.935Z,3.58
2022-09-20T08:40:06.467Z,4.95
2022-09-20T08:45:22.235Z,3.33
2022-09-20T08:50:24.728Z,4.45
2022-09-20T08:55:36.557Z,3.15
2022-09-20T09:00:40.385Z,2.78
2022-09-20T09:05:50.510Z,3.55
2022-09-20T09:11:04.755Z,2.97
2022-09-20T09:16:14.891Z,5.28
2022-09-20T09:21:23.702Z,5.28
2022-09-20T09:26:25.989Z,3.15
2022-09-20T09:31:27.818Z,9.13
2022-09-20T09:36:29.623Z,7.10
2022-09-20T09:41:36.896Z,5.20
2022-09-20T09:46:42.727Z,7.78
2022-09-20T09:52:15.797Z,7.40
2022-09-20T09:57:23.708Z,7.10
2022-09-20T10:02:38.563Z,10.73
2022-09-20T10:07:59.573Z,8.20
2022-09-20T10:13:11.916Z,5.22
2022-09-20T10:18:25.822Z,4.63
2022-09-20T10:24:04.892Z,5.97
2022-09-20T10:29:23.212Z,7.78
2022-09-20T10:34:27.911Z,10.32
2022-09-20T10:39:36.767Z,10.77
2022-09-20T10:44:38.471Z,12.30
2022-09-20T10:49:46.088Z,8.35
2022-09-20T10:55:06.305Z,8.30
2022-09-20T11:00:22.272Z,7.37
2022-09-20T11:05:39.339Z,5.55
2022-09-20T11:10:46.902Z,8.23
2022-09-20T11:16:05.784Z,12.35
2022-09-20T11:21:16.585Z,10.30
2022-09-20T11:26:44.819Z,7.35
2022-09-20T11:31:50.410Z,7.38
2022-09-20T11:37:02.639Z,6.15
2022-09-20T11:42:07.080Z,10.82
2022-09-20T11:47:31.169Z,19.75
2022-09-20T11:52:56.463Z,14.82
2022-09-20T11:58:08.125Z,13.10
2022-09-20T12:03:33.025Z,13.30
2022-09-20T12:08:40.788Z,12.10
2022-09-20T12:13:53.052Z,7.93
2022-09-20T12:18:54.812Z,9.98
2022-09-20T12:23:56.712Z,4.18
2022-09-20T12:29:01.609Z,5.65
2022-09-20T12:34:13.245Z,7.22
2022-09-20T12:39:29.486Z,7.35
2022-09-20T12:44:49.830Z,5.40
2022-09-20T12:50:12.641Z,8.35
2022-09-20T12:55:50.288Z,6.13
2022-09-20T13:01:00.826Z,7.80
2022-09-20T13:06:05.984Z,10.30
2022-09-20T13:11:07.737Z,13.13
2022-09-20T13:16:22.758Z,6.20
2022-09-20T13:21:25.706Z,6.63
2022-09-20T13:26:33.989Z,8.02
2022-09-20T13:31:36.642Z,9.02
2022-09-20T13:36:39.527Z,7.57
2022-09-20T13:41:41.255Z,10.73
2022-09-20T13:46:44.998Z,8.40
2022-09-20T13:51:48.183Z,11.32
2022-09-20T13:56:50.907Z,4.32
2022-09-20T14:01:54.830Z,3.33
2022-09-20T14:06:59.576Z,7.82
2022-09-20T14:12:03.119Z,3.28
2022-09-20T14:17:09.545Z,8.93
2022-09-20T14:22:20.336Z,5.60
2022-09-20T14:27:22.849Z,3.80
2022-09-20T14:32:38.147Z,5.30
2022-09-20T14:37:47.834Z,4.45
2022-09-20T14:43:04.154Z,5.85
2022-09-20T14:48:11.925Z,6.70
2022-09-20T14:53:29.727Z,20.63
2022-09-20T14:58:31.999Z,13.30
2022-09-20T15:03:42.710Z,11.18
2022-09-20T15:08:46.765Z,6.90
2022-09-20T15:13:48.775Z,6.40
2022-09-20T15:18:50.566Z,13.27
2022-09-20T15:23:52.973Z,8.20
2022-09-20T15:28:54.716Z,9.38
2022-09-20T15:33:56.564Z,12.80
2022-09-20T15:38:58.878Z,15.07
2022-09-20T15:44:01.605Z,13.02
2022-09-20T15:49:06.536Z,17.52
2022-09-20T15:54:12.702Z,22.42
2022-09-20T15:59:16.058Z,16.33
2022-09-20T16:04:20.014Z,22.80
2022-09-20T16:09:21.782Z,16.73
2022-09-20T16:14:23.556Z,17.92
2022-09-20T16:19:26.155Z,18.80
2022-09-20T16:24:30.538Z,17.05
2022-09-20T16:29:32.984Z,14.55
2022-09-20T16:34:36.262Z,17.85
2022-09-20T16:39:38.315Z,18.33
2022-09-20T16:44:42.726Z,19.83
2022-09-20T16:49:45.769Z,15.45
2022-09-20T16:54:47.576Z,19.35
2022-09-20T16:59:51.823Z,23.73
2022-09-20T17:04:53.626Z,25.33
2022-09-20T17:10:01.224Z,31.15
2022-09-20T17:15:03.053Z,35.17
2022-09-20T17:20:07.176Z,30.42
2022-09-20T17:25:09.343Z,35.38
2022-09-20T17:30:11.905Z,40.90
2022-09-20T17:35:13.651Z,26.45
2022-09-20T17:40:15.470Z,31.98
2022-09-20T17:45:18.156Z,29.88
2022-09-20T17:50:19.863Z,32.00
2022-09-20T17:55:22.134Z,46.75
2022-09-20T18:00:24.169Z,43.90
2022-09-20T18:05:27.271Z,39.92
2022-09-20T18:10:29.028Z,39.22
2022-09-20T18:15:32.882Z,37.20
2022-09-20T18:20:34.567Z,41.95
2022-09-20T18:25:56.276Z,47.15
2022-09-20T18:31:03.160Z,40.75
2022-09-20T18:36:06.113Z,40.97
2022-09-20T18:41:07.823Z,39.25
2022-09-20T18:46:13.576Z,44.00
2022-09-20T18:51:15.986Z,41.22
2022-09-20T18:56:24.038Z,36.85
2022-09-20T19:01:56.212Z,37.97
2022-09-20T19:07:23.056Z,33.83
2022-09-20T19:12:49.621Z,32.78
2022-09-20T19:18:03.402Z,42.40
2022-09-20T19:23:37.507Z,48.95
2022-09-20T19:28:39.828Z,41.40
2022-09-20T19:33:41.786Z,39.80
2022-09-20T19:39:10.015Z,35.70
2022-09-20T19:44:25.983Z,42.85
2022-09-20T19:49:56.887Z,58.13
2022-09-20T19:54:58.977Z,51.15
2022-09-20T20:00:01.084Z,71.38
2022-09-20T20:05:03.746Z,86.97
2022-09-20T20:10:25.783Z,67.40
2022-09-20T20:15:36.742Z,62.10
2022-09-20T20:20:45.515Z,55.28
2022-09-20T20:30:49.227Z,46.65
2022-09-20T20:35:56.722Z,78.03
2022-09-20T20:41:01.671Z,109.78
2022-09-20T20:46:05.006Z,113.15
2022-09-20T20:51:09.699Z,75.75
2022-09-20T20:56:14.262Z,68.15
2022-09-20T21:01:45.893Z,55.83
2022-09-20T21:06:47.750Z,58.13
2022-09-20T21:11:49.483Z,47.17
2022-09-20T21:16:52.067Z,32.03
2022-09-20T21:21:53.825Z,37.70
2022-09-20T21:26:55.544Z,19.00
2022-09-20T21:31:57.359Z,18.65
2022-09-20T21:37:00.061Z,13.35
2022-09-20T21:42:02.258Z,13.73
2022-09-20T21:47:04.880Z,14.85
2022-09-20T21:52:07.212Z,13.43
2022-09-20T21:57:12.665Z,13.43
2022-09-20T22:02:16.979Z,20.85
2022-09-20T22:07:18.923Z,19.98
2022-09-20T22:12:23.939Z,16.85
2022-09-20T22:17:27.067Z,21.58
2022-09-20T22:22:28.831Z,24.08
2022-09-20T22:27:30.638Z,15.38
2022-09-20T22:32:32.408Z,13.38
2022-09-20T22:37:34.144Z,17.83
2022-09-20T22:42:35.882Z,15.43
2022-09-20T22:47:37.589Z,14.52
2022-09-20T22:52:39.370Z,18.27
2022-09-20T22:57:41.095Z,14.63
2022-09-20T23:02:42.851Z,9.65
2022-09-20T23:07:48.555Z,13.82
2022-09-20T23:12:50.803Z,14.00
2022-09-20T23:17:52.535Z,11.98
2022-09-20T23:22:54.296Z,10.63
2022-09-20T23:27:55.978Z,11.30
2022-09-20T23:32:57.772Z,5.22
2022-09-20T23:37:59.478Z,9.70
2022-09-20T23:43:01.218Z,5.43
2022-09-20T23:48:03.260Z,4.47
2022-09-20T23:53:04.970Z,3.80
2022-09-20T23:58:06.707Z,5.70
